createdAt,value
2018-08-24T00:00:36.296Z,15.55
2018-08-24T00:03:07.519Z,16.05
2018-08-24T00:05:38.788Z,16.07
2018-08-24T00:08:09.881Z,16.12
2018-08-24T00:10:41.778Z,16.45
2018-08-24T00:13:13.192Z,15.78
2018-08-24T00:15:44.665Z,16.17
2018-08-24T00:18:16.215Z,16.65
2018-08-24T00:20:47.636Z,16.40
2018-08-24T00:23:19.548Z,16.12
2018-08-24T00:25:50.794Z,16.67
2018-08-24T00:28:21.850Z,16.00
2018-08-24T00:30:52.978Z,15.83
2018-08-24T00:33:24.582Z,15.90
2018-08-24T00:35:56.174Z,16.25
2018-08-24T00:38:27.174Z,16.75
2018-08-24T00:40:58.640Z,16.10
2018-08-24T00:43:30.112Z,17.05
2018-08-24T00:46:01.639Z,16.23
2018-08-24T00:48:33.173Z,16.42
2018-08-24T00:51:04.276Z,16.02
2018-08-24T00:53:37.806Z,16.30
2018-08-24T00:56:10.841Z,15.75
2018-08-24T00:58:42.600Z,16.70
2018-08-24T01:01:13.861Z,17.45
2018-08-24T01:03:44.993Z,16.10
2018-08-24T01:06:20.004Z,17.65
2018-08-24T01:08:51.695Z,16.70
2018-08-24T01:11:28.171Z,16.77
2018-08-24T01:13:59.711Z,17.07
2018-08-24T01:16:36.269Z,18.30
2018-08-24T01:19:08.463Z,16.82
2018-08-24T01:21:41.398Z,16.80
2018-08-24T01:24:14.066Z,16.23
2018-08-24T01:26:50.170Z,16.57
2018-08-24T01:29:22.542Z,17.27
2018-08-24T01:31:54.623Z,16.37
2018-08-24T01:34:26.688Z,15.72
2018-08-24T01:36:58.834Z,15.83
2018-08-24T01:39:30.892Z,15.70
2018-08-24T01:42:02.956Z,17.25
2018-08-24T01:44:34.535Z,16.55
2018-08-24T01:47:06.023Z,16.90
2018-08-24T01:49:37.644Z,17.07
2018-08-24T01:52:09.472Z,15.80
2018-08-24T01:54:41.789Z,16.87
2018-08-24T01:57:13.851Z,17.37
2018-08-24T01:59:46.017Z,16.67
2018-08-24T02:02:18.144Z,16.80
2018-08-24T02:04:50.386Z,16.67
2018-08-24T02:07:22.279Z,17.25
2018-08-24T02:09:54.764Z,18.73
2018-08-24T02:12:31.740Z,17.70
2018-08-24T02:15:03.533Z,16.42
2018-08-24T02:17:40.396Z,16.32
2018-08-24T02:20:17.532Z,16.85
2018-08-24T02:22:54.893Z,17.65
2018-08-24T02:25:26.356Z,16.95
2018-08-24T02:27:58.196Z,16.55
2018-08-24T02:30:30.235Z,17.70
2018-08-24T02:33:01.928Z,16.45
2018-08-24T02:35:33.831Z,16.80
2018-08-24T02:38:05.922Z,16.65
2018-08-24T02:40:38.190Z,16.65
2018-08-24T02:43:09.498Z,16.05
2018-08-24T02:45:40.881Z,16.48
2018-08-24T02:48:12.133Z,17.98
2018-08-24T02:50:43.932Z,16.35
2018-08-24T02:53:15.505Z,16.97
2018-08-24T02:55:47.058Z,16.95
2018-08-24T02:58:18.639Z,17.85
2018-08-24T03:00:50.213Z,16.12
2018-08-24T03:03:21.927Z,16.30
2018-08-24T03:05:53.308Z,17.00
2018-08-24T03:08:24.870Z,17.07
2018-08-24T03:10:56.373Z,16.15
2018-08-24T03:13:28.123Z,17.20
2018-08-24T03:15:59.780Z,16.85
2018-08-24T03:18:31.380Z,16.00
2018-08-24T03:21:02.988Z,16.23
2018-08-24T03:23:34.446Z,16.15
2018-08-24T03:26:05.829Z,15.88
2018-08-24T03:28:38.021Z,16.15
2018-08-24T03:31:09.565Z,16.15
2018-08-24T03:33:41.884Z,16.05
2018-08-24T03:36:13.284Z,16.57
2018-08-24T03:38:45.113Z,16.17
2018-08-24T03:41:16.683Z,16.52
2018-08-24T03:43:48.193Z,15.88
2018-08-24T03:46:19.370Z,15.58
2018-08-24T03:48:50.884Z,16.62
2018-08-24T03:51:22.262Z,16.30
2018-08-24T03:53:53.902Z,16.45
2018-08-24T03:56:25.476Z,16.02
2018-08-24T03:58:56.861Z,15.40
2018-08-24T04:01:28.388Z,16.30
2018-08-24T04:03:59.880Z,16.90
2018-08-24T04:06:31.470Z,16.23
2018-08-24T04:09:03.093Z,16.23
2018-08-24T04:11:34.479Z,16.57
2018-08-24T04:14:05.965Z,16.35
2018-08-24T04:16:42.579Z,17.30
2018-08-24T04:19:19.164Z,16.45
2018-08-24T04:21:50.681Z,15.98
2018-08-24T04:24:22.271Z,15.32
2018-08-24T04:26:54.351Z,16.60
2018-08-24T04:29:26.197Z,15.10
2018-08-24T04:31:57.762Z,15.75
2018-08-24T04:34:29.304Z,15.78
2018-08-24T04:37:01.071Z,15.70
2018-08-24T04:39:32.640Z,14.95
2018-08-24T04:42:04.336Z,14.28
2018-08-24T04:44:35.731Z,15.53
2018-08-24T04:47:07.180Z,14.68
2018-08-24T04:49:38.622Z,14.90
2018-08-24T04:52:10.281Z,14.20
2018-08-24T04:54:41.800Z,14.68
2018-08-24T04:57:13.109Z,14.45
2018-08-24T04:59:46.699Z,13.72
2018-08-24T05:02:18.136Z,13.43
2018-08-24T05:04:49.569Z,13.10
2018-08-24T05:07:20.932Z,13.28
2018-08-24T05:09:52.484Z,13.43
2018-08-24T05:12:23.842Z,15.30
2018-08-24T05:15:01.941Z,14.38
2018-08-24T05:17:33.510Z,13.38
2018-08-24T05:20:08.976Z,13.48
2018-08-24T05:22:40.607Z,13.70
2018-08-24T05:25:12.255Z,17.55
2018-08-24T05:27:43.776Z,14.10
2018-08-24T05:30:14.961Z,13.60
2018-08-24T05:32:46.326Z,12.53
2018-08-24T05:35:17.865Z,12.37
2018-08-24T05:37:49.475Z,12.43
2018-08-24T05:40:21.021Z,12.20
2018-08-24T05:42:52.597Z,14.15
2018-08-24T05:45:24.389Z,11.85
2018-08-24T05:47:56.006Z,12.30
2018-08-24T05:50:27.786Z,11.40
2018-08-24T05:52:59.472Z,11.40
2018-08-24T05:55:30.794Z,10.75
2018-08-24T05:58:02.543Z,11.50
2018-08-24T06:00:51.472Z,12.03
2018-08-24T06:03:23.089Z,11.75
2018-08-24T06:05:59.318Z,11.08
2018-08-24T06:08:31.612Z,11.50
2018-08-24T06:11:03.473Z,10.70
2018-08-24T06:13:35.016Z,10.32
2018-08-24T06:16:06.552Z,11.25
2018-08-24T06:18:38.251Z,11.38
2018-08-24T06:21:09.625Z,10.70
2018-08-24T06:23:41.140Z,10.93
2018-08-24T06:26:12.435Z,10.65
2018-08-24T06:28:44.238Z,9.98
2018-08-24T06:31:16.139Z,10.40
2018-08-24T06:33:47.237Z,10.08
2018-08-24T06:36:18.222Z,10.20
2018-08-24T06:38:49.187Z,9.48
2018-08-24T06:41:20.926Z,9.18
2018-08-24T06:43:52.307Z,9.65
2018-08-24T06:46:23.917Z,10.18
2018-08-24T06:48:55.632Z,9.78
2018-08-24T06:51:27.492Z,10.30
2018-08-24T06:53:59.814Z,9.70
2018-08-24T06:56:31.193Z,9.35
2018-08-24T06:59:02.686Z,9.40
2018-08-24T07:01:34.093Z,9.60
2018-08-24T07:04:05.646Z,9.50
2018-08-24T07:06:37.102Z,9.23
2018-08-24T07:09:10.004Z,9.50
2018-08-24T07:11:41.671Z,9.38
2018-08-24T07:14:13.131Z,9.08
2018-08-24T07:16:44.533Z,8.68
2018-08-24T07:19:15.823Z,8.90
2018-08-24T07:21:47.265Z,8.58
2018-08-24T07:24:18.804Z,8.58
2018-08-24T07:26:50.574Z,8.83
2018-08-24T07:29:22.169Z,8.65
2018-08-24T07:31:53.465Z,8.03
2018-08-24T07:34:24.907Z,7.45
2018-08-24T07:36:56.768Z,7.83
2018-08-24T07:39:28.061Z,7.75
2018-08-24T07:41:59.592Z,7.92
2018-08-24T07:44:35.313Z,7.12
2018-08-24T07:47:06.763Z,8.30
2018-08-24T07:49:38.236Z,7.85
2018-08-24T07:52:10.104Z,7.20
2018-08-24T07:54:41.378Z,7.90
2018-08-24T07:57:12.836Z,7.17
2018-08-24T07:59:44.590Z,7.67
2018-08-24T08:02:16.024Z,6.85
2018-08-24T08:04:47.591Z,7.17
2018-08-24T08:07:18.894Z,7.17
2018-08-24T08:09:50.497Z,7.37
2018-08-24T08:12:21.797Z,7.22
2018-08-24T08:14:58.320Z,7.70
2018-08-24T08:17:29.753Z,7.75
2018-08-24T08:20:01.317Z,7.55
2018-08-24T08:22:32.739Z,7.92
2018-08-24T08:25:04.253Z,7.90
2018-08-24T08:27:35.981Z,8.38
2018-08-24T08:30:07.557Z,7.80
2018-08-24T08:32:39.011Z,8.18
2018-08-24T08:35:10.776Z,8.65
2018-08-24T08:37:42.250Z,8.43
2018-08-24T08:40:13.799Z,7.53
2018-08-24T08:42:45.401Z,7.75
2018-08-24T08:45:16.808Z,7.65
2018-08-24T08:47:48.303Z,7.53
2018-08-24T08:50:19.965Z,7.55
2018-08-24T08:52:51.248Z,8.15
2018-08-24T08:55:23.332Z,8.00
2018-08-24T08:57:55.281Z,8.10
2018-08-24T09:00:26.656Z,8.58
2018-08-24T09:02:58.192Z,8.65
2018-08-24T09:05:29.722Z,7.33
2018-08-24T09:08:00.972Z,7.87
2018-08-24T09:10:32.528Z,8.05
2018-08-24T09:13:04.206Z,7.97
2018-08-24T09:15:35.701Z,8.23
2018-08-24T09:18:12.271Z,8.40
2018-08-24T09:20:48.692Z,8.43
2018-08-24T09:23:24.864Z,8.00
2018-08-24T09:26:01.241Z,8.65
2018-08-24T09:28:37.674Z,9.20
2018-08-24T09:31:22.209Z,7.67
2018-08-24T09:33:53.837Z,8.53
2018-08-24T09:36:25.229Z,8.45
2018-08-24T09:38:56.820Z,8.73
2018-08-24T09:41:28.285Z,8.55
2018-08-24T09:44:00.855Z,8.75
2018-08-24T09:46:37.295Z,9.38
2018-08-24T09:49:13.861Z,9.13
2018-08-24T09:51:45.244Z,9.25
2018-08-24T09:54:16.617Z,8.58
2018-08-24T09:56:48.341Z,8.45
2018-08-24T09:59:19.813Z,9.50
2018-08-24T10:01:56.138Z,8.88
2018-08-24T10:04:32.770Z,8.78
2018-08-24T10:07:09.109Z,8.95
2018-08-24T10:09:40.088Z,8.85
2018-08-24T10:12:11.295Z,8.98
2018-08-24T10:14:42.160Z,9.70
2018-08-24T10:17:13.127Z,9.43
2018-08-24T10:19:44.068Z,9.15
2018-08-24T10:22:15.038Z,9.35
2018-08-24T10:24:45.883Z,8.63
2018-08-24T10:27:16.850Z,9.13
2018-08-24T10:29:47.788Z,9.23
2018-08-24T10:32:18.693Z,9.60
2018-08-24T10:34:49.643Z,9.88
2018-08-24T10:37:21.412Z,10.48
2018-08-24T10:39:52.721Z,9.63
2018-08-24T10:42:24.082Z,9.90
2018-08-24T10:44:55.229Z,11.12
2018-08-24T10:47:27.971Z,10.40
2018-08-24T10:50:01.029Z,9.85
2018-08-24T10:55:10.826Z,10.43
2018-08-24T10:57:41.883Z,10.88
2018-08-24T11:00:12.973Z,11.28
2018-08-24T11:02:43.915Z,10.58
2018-08-24T11:05:15.296Z,10.68
2018-08-24T11:07:46.321Z,10.58
2018-08-24T11:10:18.101Z,11.43
2018-08-24T11:12:49.181Z,10.88
2018-08-24T11:15:20.218Z,11.88
2018-08-24T11:17:56.146Z,10.48
2018-08-24T11:20:27.195Z,10.63
2018-08-24T11:22:58.327Z,10.40
2018-08-24T11:25:29.424Z,10.08
2018-08-24T11:28:00.483Z,9.80
2018-08-24T11:30:31.438Z,10.13
2018-08-24T11:33:02.493Z,10.90
2018-08-24T11:35:33.499Z,9.73
2018-08-24T11:38:04.531Z,10.32
2018-08-24T11:40:35.471Z,10.95
2018-08-24T11:43:06.518Z,10.60
2018-08-24T11:45:37.602Z,11.25
2018-08-24T11:48:08.892Z,10.50
2018-08-24T11:50:39.840Z,10.70
2018-08-24T11:53:10.783Z,10.40
2018-08-24T11:55:42.087Z,10.88
2018-08-24T11:58:13.112Z,10.48
2018-08-24T12:00:44.159Z,10.45
2018-08-24T12:03:15.052Z,10.55
2018-08-24T12:05:45.954Z,10.58
2018-08-24T12:08:16.883Z,10.45
2018-08-24T12:10:47.954Z,10.95
2018-08-24T12:13:18.885Z,10.55
2018-08-24T12:15:49.799Z,10.28
2018-08-24T12:18:20.953Z,10.18
2018-08-24T12:20:51.921Z,10.80
2018-08-24T12:23:22.792Z,10.85
2018-08-24T12:25:53.708Z,11.70
2018-08-24T12:28:25.443Z,11.73
2018-08-24T12:30:56.448Z,13.25
2018-08-24T12:33:27.423Z,11.45
2018-08-24T12:35:58.310Z,12.05
2018-08-24T12:38:29.182Z,12.23
2018-08-24T12:41:00.220Z,12.47
2018-08-24T12:43:31.145Z,13.62
2018-08-24T12:46:02.043Z,13.62
2018-08-24T12:48:32.957Z,11.55
2018-08-24T12:51:03.898Z,12.82
2018-08-24T12:53:35.162Z,13.25
2018-08-24T12:56:10.228Z,13.53
2018-08-24T12:58:41.349Z,14.90
2018-08-24T13:01:12.361Z,14.93
2018-08-24T13:03:43.532Z,15.08
2018-08-24T13:06:15.056Z,15.43
2018-08-24T13:08:46.085Z,14.60
2018-08-24T13:11:16.892Z,14.07
2018-08-24T13:13:47.811Z,12.60
2018-08-24T13:16:18.717Z,13.00
2018-08-24T13:18:49.703Z,12.37
2018-08-24T13:21:20.875Z,12.95
2018-08-24T13:23:52.343Z,13.22
2018-08-24T13:26:23.631Z,13.98
2018-08-24T13:28:54.564Z,14.55
2018-08-24T13:31:25.999Z,13.93
2018-08-24T13:33:58.224Z,12.45
2018-08-24T13:36:29.707Z,11.80
2018-08-24T13:39:01.788Z,11.45
2018-08-24T13:41:32.974Z,11.05
2018-08-24T13:44:04.363Z,9.08
2018-08-24T13:46:35.718Z,8.73
2018-08-24T13:49:19.424Z,6.60
2018-08-24T13:51:52.640Z,5.40
2018-08-24T13:54:23.809Z,5.12
2018-08-24T13:56:54.763Z,5.20
2018-08-24T13:59:25.753Z,4.90
2018-08-24T14:01:56.648Z,4.95
2018-08-24T14:04:28.770Z,4.65
2018-08-24T14:07:00.136Z,4.97
2018-08-24T14:09:31.552Z,4.80
2018-08-24T14:12:02.799Z,6.85
2018-08-24T14:14:33.834Z,6.75
2018-08-24T14:17:05.473Z,5.25
2018-08-24T14:19:36.516Z,5.75
2018-08-24T14:22:07.708Z,6.00
2018-08-24T14:24:38.806Z,5.30
2018-08-24T14:27:10.864Z,5.05
2018-08-24T14:29:43.015Z,5.20
2018-08-24T14:32:15.070Z,5.05
2018-08-24T14:34:46.915Z,31.87
2018-08-24T14:37:19.044Z,17.30
2018-08-24T14:39:49.987Z,7.80
2018-08-24T14:42:22.048Z,7.67
2018-08-24T14:44:53.971Z,9.68
2018-08-24T14:47:26.262Z,7.05
2018-08-24T14:49:57.543Z,6.05
2018-08-24T14:52:29.396Z,6.40
2018-08-24T14:55:00.711Z,5.97
2018-08-24T14:57:31.845Z,5.50
2018-08-24T15:00:03.880Z,6.03
2018-08-24T15:02:35.841Z,7.47
2018-08-24T15:05:09.389Z,5.92
2018-08-24T15:07:40.515Z,6.92
2018-08-24T15:10:12.269Z,5.85
2018-08-24T15:12:43.164Z,5.20
2018-08-24T15:15:14.035Z,5.42
2018-08-24T15:17:45.017Z,28.80
2018-08-24T15:20:16.384Z,8.35
2018-08-24T15:22:47.506Z,6.05
2018-08-24T15:25:18.610Z,6.05
2018-08-24T15:27:49.658Z,27.70
2018-08-24T15:30:21.292Z,5.78
2018-08-24T15:32:52.471Z,4.78
2018-08-24T15:35:23.581Z,6.90
2018-08-24T15:37:55.494Z,6.20
2018-08-24T15:40:26.534Z,5.67
2018-08-24T15:42:57.450Z,5.45
2018-08-24T15:45:28.598Z,7.65
2018-08-24T15:47:59.554Z,5.67
2018-08-24T15:50:30.930Z,5.08
2018-08-24T15:53:01.882Z,5.65
2018-08-24T15:55:32.796Z,5.08
2018-08-24T15:58:03.703Z,4.72
2018-08-24T16:00:35.039Z,4.87
2018-08-24T16:03:06.211Z,6.20
2018-08-24T16:05:37.785Z,5.80
2018-08-24T16:08:09.412Z,5.75
2018-08-24T16:10:40.879Z,5.53
2018-08-24T16:13:12.810Z,23.18
2018-08-24T16:15:44.776Z,10.78
2018-08-24T16:18:20.591Z,6.00
2018-08-24T16:20:53.817Z,6.87
2018-08-24T16:23:25.105Z,5.70
2018-08-24T16:25:56.359Z,9.80
2018-08-24T16:28:27.745Z,8.13
2018-08-24T16:30:59.144Z,7.08
2018-08-24T16:33:30.402Z,6.83
2018-08-24T16:36:01.773Z,6.12
2018-08-24T16:38:32.770Z,6.20
2018-08-24T16:41:04.009Z,5.70
2018-08-24T16:43:34.951Z,5.87
2018-08-24T16:46:05.846Z,6.67
2018-08-24T16:48:37.432Z,4.95
2018-08-24T16:51:08.768Z,5.53
2018-08-24T16:53:39.703Z,6.80
2018-08-24T16:56:10.680Z,5.62
2018-08-24T16:58:41.631Z,6.97
2018-08-24T17:01:12.519Z,29.57
2018-08-24T17:03:43.490Z,13.18
2018-08-24T17:06:14.432Z,11.38
2018-08-24T17:08:45.396Z,10.05
2018-08-24T17:11:16.355Z,7.70
2018-08-24T17:13:47.327Z,8.20
2018-08-24T17:16:18.396Z,9.80
2018-08-24T17:18:49.379Z,9.58
2018-08-24T17:21:20.316Z,7.62
2018-08-24T17:23:51.291Z,6.53
2018-08-24T17:26:22.252Z,8.40
2018-08-24T17:28:53.439Z,7.12
2018-08-24T17:31:24.350Z,7.30
2018-08-24T17:33:55.255Z,6.40
2018-08-24T17:36:26.219Z,6.70
2018-08-24T17:38:57.205Z,5.78
2018-08-24T17:41:28.670Z,8.75
2018-08-24T17:44:00.296Z,8.05
2018-08-24T17:46:31.677Z,8.93
2018-08-24T17:49:02.779Z,7.58
2018-08-24T17:51:34.166Z,6.00
2018-08-24T17:54:05.791Z,6.15
2018-08-24T17:56:37.182Z,5.50
2018-08-24T17:59:08.094Z,5.80
2018-08-24T18:01:38.981Z,5.42
2018-08-24T18:04:09.902Z,5.62
2018-08-24T18:06:40.868Z,5.58
2018-08-24T18:09:12.793Z,6.20
2018-08-24T18:11:43.696Z,5.78
2018-08-24T18:14:16.016Z,6.15
2018-08-24T18:16:47.761Z,6.45
2018-08-24T18:19:19.210Z,5.90
2018-08-24T18:21:50.922Z,6.53
2018-08-24T18:24:22.995Z,6.17
2018-08-24T18:26:54.034Z,12.18
2018-08-24T18:29:25.536Z,6.05
2018-08-24T18:31:56.513Z,5.92
2018-08-24T18:34:27.590Z,6.50
2018-08-24T18:36:58.630Z,23.27
2018-08-24T18:39:29.612Z,16.10
2018-08-24T18:42:00.576Z,7.80
2018-08-24T18:44:31.564Z,8.08
2018-08-24T18:47:02.914Z,5.75
2018-08-24T18:49:33.856Z,11.00
2018-08-24T18:52:05.300Z,5.40
2018-08-24T18:54:36.426Z,5.65
2018-08-24T18:57:07.801Z,4.12
2018-08-24T18:59:39.283Z,6.00
2018-08-24T19:02:10.912Z,4.40
2018-08-24T19:04:42.104Z,4.90
2018-08-24T19:07:13.260Z,6.40
2018-08-24T19:09:44.409Z,6.12
2018-08-24T19:12:30.589Z,4.83
2018-08-24T19:15:02.012Z,3.95
2018-08-24T19:17:38.316Z,5.22
2018-08-24T19:20:14.855Z,4.03
2018-08-24T19:22:51.117Z,6.97
2018-08-24T19:25:22.382Z,6.65
2018-08-24T19:27:58.196Z,3.80
2018-08-24T19:30:33.561Z,4.62
2018-08-24T19:33:04.511Z,4.22
2018-08-24T19:35:35.458Z,4.97
2018-08-24T19:38:06.510Z,3.58
2018-08-24T19:40:43.226Z,3.60
2018-08-24T19:43:14.066Z,3.60
2018-08-24T19:45:45.000Z,3.92
2018-08-24T19:48:21.093Z,4.00
2018-08-24T19:50:52.519Z,4.00
2018-08-24T19:53:24.082Z,6.95
2018-08-24T19:55:55.491Z,18.07
2018-08-24T19:58:31.872Z,4.35
2018-08-24T20:01:03.370Z,14.78
2018-08-24T20:03:35.697Z,15.30
2018-08-24T20:06:13.127Z,18.55
2018-08-24T20:08:49.610Z,7.30
2018-08-24T20:11:21.333Z,11.73
2018-08-24T20:13:52.473Z,18.67
2018-08-24T20:16:28.653Z,5.85
2018-08-24T20:18:59.596Z,6.05
2018-08-24T20:21:30.478Z,6.10
2018-08-24T20:24:01.443Z,5.78
2018-08-24T20:26:32.314Z,5.10
2018-08-24T20:29:03.239Z,4.37
2018-08-24T20:31:34.215Z,4.25
2018-08-24T20:34:05.104Z,8.25
2018-08-24T20:36:36.063Z,3.90
2018-08-24T20:39:10.510Z,3.80
2018-08-24T20:41:41.872Z,4.83
2018-08-24T20:44:12.881Z,5.15
2018-08-24T20:46:43.816Z,3.77
2018-08-24T20:49:14.736Z,6.97
2018-08-24T20:51:45.605Z,23.55
2018-08-24T20:54:16.527Z,9.65
2018-08-24T20:56:47.420Z,4.03
2018-08-24T20:59:18.728Z,4.70
2018-08-24T21:01:49.665Z,9.95
2018-08-24T21:04:20.712Z,13.72
2018-08-24T21:06:51.639Z,26.27
2018-08-24T21:09:22.694Z,8.43
2018-08-24T21:11:53.637Z,5.37
2018-08-24T21:14:24.639Z,13.95
2018-08-24T21:16:55.704Z,4.70
2018-08-24T21:19:26.596Z,3.80
2018-08-24T21:21:57.431Z,3.80
2018-08-24T21:24:28.519Z,3.67
2018-08-24T21:26:59.486Z,3.60
2018-08-24T21:29:30.339Z,5.47
2018-08-24T21:32:01.263Z,4.53
2018-08-24T21:34:32.203Z,4.17
2018-08-24T21:37:03.084Z,5.20
2018-08-24T21:39:34.096Z,8.23
2018-08-24T21:42:05.866Z,3.58
2018-08-24T21:44:37.304Z,3.47
2018-08-24T21:47:08.755Z,3.87
2018-08-24T21:49:40.067Z,3.37
2018-08-24T21:52:11.331Z,3.30
2018-08-24T21:54:42.790Z,4.53
2018-08-24T21:57:14.110Z,3.62
2018-08-24T21:59:45.525Z,5.20
2018-08-24T22:02:16.932Z,13.95
2018-08-24T22:04:48.423Z,5.30
2018-08-24T22:07:19.971Z,3.45
2018-08-24T22:09:51.381Z,3.90
2018-08-24T22:12:22.715Z,3.77
2018-08-24T22:14:54.252Z,18.98
2018-08-24T22:17:25.606Z,6.87
2018-08-24T22:19:57.159Z,15.03
2018-08-24T22:22:28.445Z,4.75
2018-08-24T22:25:00.071Z,4.85
2018-08-24T22:27:31.534Z,4.08
2018-08-24T22:30:03.092Z,3.83
2018-08-24T22:32:34.617Z,12.03
2018-08-24T22:35:06.069Z,4.80
2018-08-24T22:37:37.371Z,4.37
2018-08-24T22:40:09.117Z,3.55
2018-08-24T22:42:42.685Z,4.00
2018-08-24T22:45:15.085Z,3.83
2018-08-24T22:47:46.488Z,4.00
2018-08-24T22:50:17.498Z,4.30
2018-08-24T22:52:48.391Z,4.08
2018-08-24T22:55:19.321Z,4.30
2018-08-24T22:57:50.247Z,3.90
2018-08-24T23:00:21.367Z,4.50
2018-08-24T23:02:52.320Z,4.22
2018-08-24T23:05:24.028Z,4.03
2018-08-24T23:07:54.964Z,3.98
2018-08-24T23:10:25.872Z,3.87
2018-08-24T23:12:56.944Z,4.90
2018-08-24T23:15:27.845Z,3.95
2018-08-24T23:17:58.868Z,4.12
2018-08-24T23:20:29.769Z,4.10
2018-08-24T23:23:00.745Z,3.95
2018-08-24T23:25:31.814Z,3.70
2018-08-24T23:28:02.774Z,4.17
2018-08-24T23:30:33.713Z,3.83
2018-08-24T23:33:04.684Z,3.83
2018-08-24T23:35:35.665Z,4.20
2018-08-24T23:38:06.608Z,3.98
2018-08-24T23:40:37.619Z,3.92
2018-08-24T23:43:08.643Z,3.67
2018-08-24T23:45:39.615Z,4.25
2018-08-24T23:48:10.498Z,4.33
2018-08-24T23:50:41.408Z,4.08
2018-08-24T23:53:12.394Z,4.55
2018-08-24T23:55:43.355Z,4.42
2018-08-24T23:58:14.276Z,4.92
